Time;durP1;ratioP1;P1;durP2;ratioP2;P2;SDS_P1;SDS_P2;PMS_P1;PMS_P2;Temp;Humidity;BMP_temperature;BMP_pressure;BME280_temperature;BME280_humidity;BME280_pressure;Samples;Min_cycle;Max_cycle;Signal;HPM_P1;HPM_P2
2021/11/06 00:02:23;;;;;;;0.00;0.00;;;;;;;7.46;56.87;99312.56;115364;1216;137508;-83
2021/11/06 00:04:49;;;;;;;0.00;0.00;;;;;;;7.46;57.02;99316.21;115512;1216;137354;-83
2021/11/06 00:07:14;;;;;;;0.10;0.10;;;;;;;7.45;57.40;99316.95;115466;1213;137544;-83
2021/11/06 00:09:41;;;;;;;0.00;0.00;;;;;;;7.44;57.26;99316.85;115436;1216;138068;-83
2021/11/06 00:12:06;;;;;;;0.00;0.00;;;;;;;7.44;57.39;99325.70;115595;1216;22254;-83
2021/11/06 00:14:33;;;;;;;0.00;0.00;;;;;;;7.43;57.69;99328.64;115402;1215;137810;-82
2021/11/06 00:16:59;;;;;;;0.00;0.00;;;;;;;7.42;57.72;99333.39;115522;1216;137331;-82
2021/11/06 00:19:25;;;;;;;0.10;0.10;;;;;;;7.42;57.52;99336.61;115490;1216;137627;-82
2021/11/06 00:21:50;;;;;;;0.00;0.00;;;;;;;7.41;58.05;99333.89;115375;1216;137488;-82
2021/11/06 00:24:17;;;;;;;0.00;0.00;;;;;;;7.40;57.79;99340.31;115596;1215;22765;-83
2021/11/06 00:26:42;;;;;;;0.10;0.10;;;;;;;7.39;57.94;99339.17;115393;1216;137211;-83
2021/11/06 00:29:08;;;;;;;0.10;0.10;;;;;;;7.40;57.99;99339.73;115457;1216;137968;-83
2021/11/06 00:31:34;;;;;;;0.10;0.10;;;;;;;7.44;58.68;99341.70;115550;1214;138482;-83
2021/11/06 00:33:59;;;;;;;0.00;0.00;;;;;;;7.50;58.68;99336.36;115462;1213;137971;-83
2021/11/06 00:36:25;;;;;;;0.10;0.10;;;;;;;7.58;59.01;99339.81;115600;1216;23001;-83
2021/11/06 00:38:52;;;;;;;0.00;0.00;;;;;;;7.65;59.05;99339.83;115390;1215;137113;-83
2021/11/06 00:41:18;;;;;;;0.00;0.00;;;;;;;7.68;58.54;99347.87;115463;1216;137742;-83
2021/11/06 00:43:43;;;;;;;0.00;0.00;;;;;;;7.71;58.34;99344.05;115389;1215;137830;-83
2021/11/06 00:46:09;;;;;;;0.10;0.10;;;;;;;7.73;58.42;99340.31;115487;1216;137297;-83
2021/11/06 00:48:35;;;;;;;0.10;0.10;;;;;;;7.74;58.06;99344.02;115604;1201;22253;-83
2021/11/06 00:51:00;;;;;;;0.00;0.00;;;;;;;7.74;58.09;99343.52;115392;1216;137202;-83
2021/11/06 00:53:26;;;;;;;0.00;0.00;;;;;;;7.72;58.06;99344.39;115480;1213;137560;-83
2021/11/06 00:55:51;;;;;;;0.00;0.00;;;;;;;7.70;57.81;99342.61;115451;1215;137679;-83
2021/11/06 00:58:17;;;;;;;0.00;0.00;;;;;;;7.67;58.09;99340.36;115485;1215;137398;-83
2021/11/06 01:00:43;;;;;;;0.10;0.10;;;;;;;7.65;57.81;99345.98;115505;1213;137118;-83
2021/11/06 01:03:09;;;;;;;0.00;0.00;;;;;;;7.61;57.96;99340.46;115468;1213;137673;-84
2021/11/06 01:05:35;;;;;;;0.00;0.00;;;;;;;7.57;58.03;99341.20;115483;1216;137124;-83
2021/11/06 01:08:00;;;;;;;0.10;0.10;;;;;;;7.52;57.92;99337.77;115359;1216;137649;-83
2021/11/06 01:10:26;;;;;;;0.00;0.00;;;;;;;7.47;58.02;99343.10;115508;1216;137142;-83
2021/11/06 01:12:51;;;;;;;0.00;0.00;;;;;;;7.43;58.22;99349.05;115509;1215;137661;-83
2021/11/06 01:15:18;;;;;;;0.00;0.00;;;;;;;7.39;58.39;99351.18;115485;1216;137776;-83
2021/11/06 01:17:43;;;;;;;0.00;0.00;;;;;;;7.32;58.63;99347.95;115508;1216;137311;-83
2021/11/06 01:20:09;;;;;;;0.00;0.00;;;;;;;7.28;58.63;99350.45;115466;1210;137713;-83
2021/11/06 01:22:36;;;;;;;0.10;0.10;;;;;;;7.25;58.76;99356.39;115522;1215;137255;-83
2021/11/06 01:25:03;;;;;;;0.00;0.00;;;;;;;7.22;58.63;99356.71;115502;1214;138171;-83
2021/11/06 01:27:29;;;;;;;0.00;0.00;;;;;;;7.19;58.83;99358.73;115481;1215;137349;-83
2021/11/06 01:29:54;;;;;;;0.10;0.10;;;;;;;7.17;58.89;99361.41;115465;1213;137417;-83
2021/11/06 01:32:20;;;;;;;0.10;0.10;;;;;;;7.14;58.85;99362.77;115383;1216;137919;-83
2021/11/06 01:34:46;;;;;;;0.00;0.00;;;;;;;7.11;58.96;99362.08;115493;1216;137272;-83
2021/11/06 01:37:11;;;;;;;0.10;0.10;;;;;;;7.09;58.83;99359.34;115511;1212;137506;-82
2021/11/06 01:39:37;;;;;;;0.10;0.10;;;;;;;7.06;59.16;99354.45;115475;1216;137342;-83
2021/11/06 01:42:03;;;;;;;0.00;0.00;;;;;;;7.04;58.90;99353.81;115498;1215;136968;-83
2021/11/06 01:44:30;;;;;;;0.00;0.00;;;;;;;7.00;58.97;99350.95;115457;1215;137662;-83
2021/11/06 01:46:56;;;;;;;0.00;0.00;;;;;;;6.97;59.24;99348.73;115477;1215;136242;-84
2021/11/06 01:49:21;;;;;;;0.10;0.10;;;;;;;6.92;59.25;99346.42;115583;1215;137204;-83
2021/11/06 01:51:52;;;;;;;0.00;0.00;;;;;;;6.87;59.82;99346.49;115382;1215;137533;-84
2021/11/06 01:54:22;;;;;;;0.10;0.10;;;;;;;6.82;59.62;99351.12;115637;1216;23216;-84
2021/11/06 01:56:48;;;;;;;0.10;0.10;;;;;;;6.79;59.65;99359.04;115375;1214;138503;-83
2021/11/06 01:59:14;;;;;;;0.00;0.00;;;;;;;6.75;59.86;99364.16;115507;1215;137160;-83
2021/11/06 02:01:39;;;;;;;0.00;0.00;;;;;;;6.72;59.93;99362.10;115390;1215;159970;-83
2021/11/06 02:04:05;;;;;;;0.00;0.00;;;;;;;6.67;59.96;99357.36;115477;1216;137216;-83
2021/11/06 02:06:31;;;;;;;0.00;0.00;;;;;;;6.62;60.45;99360.81;115692;1215;22143;-83
2021/11/06 02:08:56;;;;;;;0.00;0.00;;;;;;;6.58;60.44;99361.16;115378;1211;137243;-84
2021/11/06 02:11:22;;;;;;;0.00;0.00;;;;;;;6.53;60.51;99366.54;115501;1215;137224;-84
2021/11/06 02:13:47;;;;;;;0.10;0.10;;;;;;;6.47;60.85;99363.88;115400;1215;137619;-84
2021/11/06 02:16:13;;;;;;;0.10;0.10;;;;;;;6.44;60.81;99362.35;115482;1209;137887;-84
2021/11/06 02:18:39;;;;;;;0.10;0.10;;;;;;;6.44;61.17;99368.89;115581;1216;23119;-85
2021/11/06 02:21:08;;;;;;;0.00;0.00;;;;;;;6.45;61.51;99366.92;115297;1216;138426;-85
2021/11/06 02:23:37;;;;;;;0.10;0.10;;;;;;;6.49;61.53;99372.56;115478;1216;137675;-84
2021/11/06 02:26:03;;;;;;;0.10;0.10;;;;;;;6.51;61.88;99368.93;115375;1216;138210;-84
2021/11/06 02:28:30;;;;;;;0.00;0.00;;;;;;;6.52;61.78;99368.89;115458;1216;137259;-84
2021/11/06 02:30:56;;;;;;;0.00;0.00;;;;;;;6.54;61.57;99368.63;115456;1215;137291;-85
2021/11/06 02:33:22;;;;;;;0.10;0.10;;;;;;;6.57;61.25;99370.84;115585;1213;137429;-84
2021/11/06 02:35:48;;;;;;;0.10;0.10;;;;;;;6.60;61.03;99370.07;115602;1215;137353;-84
2021/11/06 02:38:14;;;;;;;0.00;0.00;;;;;;;6.63;61.06;99361.40;115431;1215;138295;-84
2021/11/06 02:40:40;;;;;;;0.00;0.00;;;;;;;6.64;60.93;99365.27;115589;1215;137393;-84
2021/11/06 02:43:07;;;;;;;0.10;0.10;;;;;;;6.63;60.77;99366.55;115610;1213;137211;-84
2021/11/06 02:45:34;;;;;;;0.00;0.00;;;;;;;6.62;61.09;99362.21;115505;1214;137079;-84
2021/11/06 02:48:00;;;;;;;0.00;0.00;;;;;;;6.61;61.04;99364.77;115544;1214;136977;-84
2021/11/06 02:50:25;;;;;;;0.00;0.00;;;;;;;6.59;60.76;99368.61;115412;1216;137271;-83
2021/11/06 02:52:52;;;;;;;0.00;0.00;;;;;;;6.57;61.05;99368.86;115505;1216;137447;-84
2021/11/06 02:55:18;;;;;;;0.10;0.10;;;;;;;6.53;60.96;99374.99;115601;1215;137147;-84
2021/11/06 02:57:44;;;;;;;0.00;0.00;;;;;;;6.50;61.17;99371.54;115441;1212;137953;-84
2021/11/06 03:00:10;;;;;;;0.00;0.00;;;;;;;6.44;61.25;99369.91;115726;1214;22321;-84
2021/11/06 03:02:37;;;;;;;0.00;0.00;;;;;;;6.40;61.71;99373.35;115543;1214;137030;-84
2021/11/06 03:05:07;;;;;;;0.00;0.00;;;;;;;6.34;61.97;99377.33;115628;1214;137540;-84
2021/11/06 03:07:34;;;;;;;0.00;0.00;;;;;;;6.27;61.68;99376.85;115689;1214;137269;-83
2021/11/06 03:10:00;;;;;;;0.00;0.00;;;;;;;6.21;61.89;99377.72;115443;1214;137297;-83
2021/11/06 03:12:26;;;;;;;0.00;0.00;;;;;;;6.17;62.15;99372.59;115760;1210;22952;-83
2021/11/06 03:14:52;;;;;;;0.00;0.00;;;;;;;6.12;62.24;99373.04;115472;1214;137419;-83
2021/11/06 03:17:18;;;;;;;0.00;0.00;;;;;;;6.09;62.08;99375.80;115565;1215;136994;-83
2021/11/06 03:19:44;;;;;;;0.00;0.00;;;;;;;6.06;62.08;99377.86;115381;1213;137247;-83
2021/11/06 03:22:10;;;;;;;0.00;0.00;;;;;;;6.03;62.58;99380.71;115570;1216;137471;-83
2021/11/06 03:24:37;;;;;;;0.00;0.00;;;;;;;6.00;62.42;99379.05;115613;1216;22299;-83
2021/11/06 03:27:04;;;;;;;0.00;0.00;;;;;;;5.96;62.96;99385.41;115428;1216;137130;-83
2021/11/06 03:29:29;;;;;;;0.00;0.00;;;;;;;5.95;63.05;99394.44;115504;1213;137599;-84
2021/11/06 03:31:55;;;;;;;0.00;0.00;;;;;;;5.97;62.92;99397.45;115339;1215;138665;-84
2021/11/06 03:34:21;;;;;;;0.10;0.10;;;;;;;6.02;63.25;99400.06;115642;1214;136937;-83
2021/11/06 03:36:46;;;;;;;0.00;0.00;;;;;;;6.09;63.73;99397.45;115687;1214;138133;-83
2021/11/06 03:39:12;;;;;;;0.00;0.00;;;;;;;6.16;63.61;99395.00;115631;1210;137517;-83
2021/11/06 03:41:37;;;;;;;0.00;0.00;;;;;;;6.22;63.49;99393.72;115632;1214;137717;-83
2021/11/06 03:44:04;;;;;;;0.00;0.00;;;;;;;6.28;63.37;99394.57;115483;1210;138234;-83
2021/11/06 03:46:30;;;;;;;0.10;0.10;;;;;;;6.34;63.27;99398.02;115665;1209;137379;-83
2021/11/06 03:48:56;;;;;;;0.10;0.10;;;;;;;6.37;62.89;99396.92;115656;1214;137587;-83
2021/11/06 03:51:22;;;;;;;0.00;0.00;;;;;;;6.41;62.99;99400.33;115583;1214;137922;-83
2021/11/06 03:53:47;;;;;;;0.00;0.00;;;;;;;6.44;62.66;99402.16;115672;1210;136988;-83
2021/11/06 03:56:13;;;;;;;0.00;0.00;;;;;;;6.45;62.74;99409.94;115453;1213;137427;-82
2021/11/06 03:58:39;;;;;;;0.00;0.00;;;;;;;6.46;62.83;99415.19;115582;1214;137127;-82
2021/11/06 04:01:05;;;;;;;0.00;0.00;;;;;;;6.45;62.84;99413.20;115645;1210;137809;-81
2021/11/06 04:03:30;;;;;;;0.00;0.00;;;;;;;6.44;62.66;99416.02;115661;1214;137650;-81
2021/11/06 04:05:56;;;;;;;0.00;0.00;;;;;;;6.42;62.73;99413.08;115640;1212;136992;-83
2021/11/06 04:08:21;;;;;;;0.00;0.00;;;;;;;6.39;62.70;99407.81;115447;1213;137369;-84
2021/11/06 04:10:47;;;;;;;0.00;0.00;;;;;;;6.37;62.83;99400.61;115648;1215;137040;-85
2021/11/06 04:13:14;;;;;;;0.00;0.00;;;;;;;6.33;63.02;99400.05;115658;1213;137347;-84
2021/11/06 04:15:41;;;;;;;0.00;0.00;;;;;;;6.31;62.98;99394.31;115659;1213;137333;-84
2021/11/06 04:18:07;;;;;;;0.00;0.00;;;;;;;6.28;62.80;99394.30;115483;1216;136823;-84
2021/11/06 04:20:34;;;;;;;0.00;0.00;;;;;;;6.27;63.32;99398.02;115407;1216;137362;-84
2021/11/06 04:22:59;;;;;;;0.00;0.00;;;;;;;6.24;63.29;99394.84;115473;1216;136017;-83
2021/11/06 04:25:25;;;;;;;0.00;0.00;;;;;;;6.21;63.21;99395.16;115490;1216;137321;-84
2021/11/06 04:27:51;;;;;;;0.00;0.00;;;;;;;6.18;63.16;99398.07;115365;1215;137436;-84
2021/11/06 04:30:16;;;;;;;0.00;0.00;;;;;;;6.17;63.18;99398.09;115628;1214;22189;-84
2021/11/06 04:32:42;;;;;;;0.00;0.00;;;;;;;6.14;63.34;99405.48;115414;1214;137070;-84
2021/11/06 04:35:08;;;;;;;0.00;0.00;;;;;;;6.15;63.28;99408.15;115648;1213;137633;-84
2021/11/06 04:37:34;;;;;;;0.00;0.00;;;;;;;6.19;63.53;99410.85;115658;1214;137879;-84
2021/11/06 04:40:00;;;;;;;0.00;0.00;;;;;;;6.25;63.86;99416.15;115403;1214;138429;-84
2021/11/06 04:42:26;;;;;;;0.00;0.00;;;;;;;6.32;63.82;99418.34;115771;1214;23067;-84
2021/11/06 04:44:52;;;;;;;0.00;0.00;;;;;;;6.38;63.78;99417.80;115536;1214;137294;-84
2021/11/06 04:47:18;;;;;;;0.00;0.00;;;;;;;6.43;63.82;99418.64;115703;1214;137399;-84
2021/11/06 04:49:43;;;;;;;0.00;0.00;;;;;;;6.47;63.52;99424.92;115517;1209;137904;-84
2021/11/06 04:52:09;;;;;;;0.00;0.00;;;;;;;6.49;63.18;99429.55;115638;1213;138011;-84
2021/11/06 04:54:34;;;;;;;0.00;0.00;;;;;;;6.50;63.16;99427.09;115609;1215;23221;-84
2021/11/06 04:57:00;;;;;;;0.00;0.00;;;;;;;6.49;63.40;99423.13;115476;1214;137947;-84
2021/11/06 04:59:26;;;;;;;0.00;0.00;;;;;;;6.47;63.00;99421.50;115443;1215;137219;-85
2021/11/06 05:01:52;;;;;;;0.10;0.10;;;;;;;6.45;63.11;99422.30;115376;1214;137547;-84
2021/11/06 05:04:17;;;;;;;0.00;0.00;;;;;;;6.41;63.26;99416.16;115688;1210;137183;-85
2021/11/06 05:06:43;;;;;;;0.00;0.00;;;;;;;6.37;63.25;99419.45;115516;1214;138134;-85
2021/11/06 05:09:08;;;;;;;0.00;0.00;;;;;;;6.31;63.17;99417.17;115590;1214;137699;-85
2021/11/06 05:11:34;;;;;;;0.00;0.00;;;;;;;6.26;63.55;99429.36;115634;1209;137212;-85
2021/11/06 05:13:59;;;;;;;0.00;0.00;;;;;;;6.21;63.36;99442.00;115424;1213;137374;-85
2021/11/06 05:16:26;;;;;;;0.00;0.00;;;;;;;6.15;63.46;99450.34;115509;1213;137904;-85
2021/11/06 05:18:54;;;;;;;0.00;0.00;;;;;;;6.10;63.58;99451.70;115495;1213;137237;-85
2021/11/06 05:21:21;;;;;;;0.00;0.00;;;;;;;6.05;63.60;99452.92;115505;1216;137389;-85
2021/11/06 05:23:48;;;;;;;0.00;0.00;;;;;;;5.99;63.84;99447.46;115509;1212;137248;-85
2021/11/06 05:26:13;;;;;;;0.00;0.00;;;;;;;5.94;64.10;99450.67;115384;1215;137858;-84
2021/11/06 05:28:41;;;;;;;0.00;0.00;;;;;;;5.88;64.20;99444.07;115501;1215;137641;-85
2021/11/06 05:31:07;;;;;;;0.10;0.10;;;;;;;5.84;64.08;99448.67;115535;1212;137492;-84
2021/11/06 05:33:32;;;;;;;0.00;0.00;;;;;;;5.80;64.19;99448.20;115615;1210;137083;-84
2021/11/06 05:35:58;;;;;;;0.00;0.00;;;;;;;5.77;64.40;99455.66;115633;1214;136844;-83
2021/11/06 05:38:24;;;;;;;0.00;0.00;;;;;;;5.74;64.42;99458.72;115526;1213;137360;-83
2021/11/06 05:40:50;;;;;;;0.00;0.00;;;;;;;5.72;64.55;99461.48;115692;1209;137380;-83
2021/11/06 05:43:15;;;;;;;0.00;0.00;;;;;;;5.73;64.69;99460.42;115545;1215;137832;-83
2021/11/06 05:45:41;;;;;;;0.00;0.00;;;;;;;5.76;64.97;99467.07;115469;1214;138613;-83
2021/11/06 05:48:06;;;;;;;0.00;0.00;;;;;;;5.81;65.28;99471.04;115781;1212;22228;-83
2021/11/06 05:50:32;;;;;;;0.00;0.00;;;;;;;5.87;65.20;99478.52;115532;1209;138003;-83
2021/11/06 05:52:57;;;;;;;0.00;0.00;;;;;;;5.89;65.37;99481.55;115650;1213;137331;-83
2021/11/06 05:55:23;;;;;;;0.00;0.00;;;;;;;5.91;65.04;99482.97;115611;1210;137350;-83
2021/11/06 05:57:48;;;;;;;0.00;0.00;;;;;;;5.92;65.14;99488.75;115493;1210;137853;-83
2021/11/06 06:00:17;;;;;;;0.00;0.00;;;;;;;5.92;65.11;99496.20;115717;1214;22362;-83
2021/11/06 06:02:43;;;;;;;0.00;0.00;;;;;;;5.91;65.08;99496.96;115513;1214;137955;-83
2021/11/06 06:05:09;;;;;;;0.00;0.00;;;;;;;5.88;65.09;99504.64;115569;1213;137028;-83
2021/11/06 06:07:36;;;;;;;0.00;0.00;;;;;;;5.85;64.93;99509.13;115467;1214;137204;-82
2021/11/06 06:10:05;;;;;;;0.00;0.00;;;;;;;5.82;65.20;99511.98;115408;1213;137393;-82
2021/11/06 06:12:30;;;;;;;0.10;0.10;;;;;;;5.77;64.89;99519.68;115622;1213;22390;-82
2021/11/06 06:15:25;;;;;;;0.00;0.00;;;;;;;5.74;64.94;99526.44;115360;1209;137554;-81
2021/11/06 06:17:52;;;;;;;0.00;0.00;;;;;;;5.69;65.09;99530.39;115563;1211;137099;-82
2021/11/06 06:20:19;;;;;;;0.00;0.00;;;;;;;5.64;64.83;99529.95;115365;1215;137963;-82
2021/11/06 06:22:45;;;;;;;0.00;0.00;;;;;;;5.60;64.93;99531.23;115517;1215;137102;-82
2021/11/06 06:25:12;;;;;;;0.00;0.00;;;;;;;5.57;65.27;99527.23;115491;1215;137429;-82
2021/11/06 06:27:40;;;;;;;0.00;0.00;;;;;;;5.54;65.03;99526.45;115510;1209;137148;-82
2021/11/06 06:30:09;;;;;;;0.00;0.00;;;;;;;5.52;65.46;99529.59;115457;1214;137151;-83
2021/11/06 06:32:35;;;;;;;0.00;0.00;;;;;;;5.51;65.53;99534.31;115384;1216;137784;-82
2021/11/06 06:35:01;;;;;;;0.00;0.00;;;;;;;5.50;65.68;99537.61;115481;1213;137209;-82
2021/11/06 06:37:27;;;;;;;0.00;0.00;;;;;;;5.52;65.48;99534.06;115584;1207;137917;-82
2021/11/06 06:39:53;;;;;;;0.10;0.10;;;;;;;5.58;65.68;99541.95;115444;1211;138720;-81
2021/11/06 06:42:20;;;;;;;0.00;0.00;;;;;;;5.66;65.90;99545.42;115780;1210;22289;-81
2021/11/06 06:44:46;;;;;;;0.00;0.00;;;;;;;5.77;66.05;99547.73;115387;1216;137494;-81
2021/11/06 06:47:13;;;;;;;0.00;0.00;;;;;;;5.86;65.91;99545.29;115508;1216;137278;-81
2021/11/06 06:49:39;;;;;;;0.10;0.10;;;;;;;5.97;65.69;99552.38;115466;1213;137194;-81
2021/11/06 06:52:05;;;;;;;0.10;0.10;;;;;;;6.06;65.76;99551.59;115567;1215;137367;-81
2021/11/06 06:54:30;;;;;;;0.10;0.10;;;;;;;6.14;65.89;99559.96;115637;1213;22373;-81
2021/11/06 06:56:56;;;;;;;0.00;0.00;;;;;;;6.24;65.37;99561.78;115400;1213;136887;-82
2021/11/06 06:59:21;;;;;;;0.10;0.10;;;;;;;6.32;65.40;99561.61;115561;1214;137050;-82
2021/11/06 07:01:47;;;;;;;0.10;0.10;;;;;;;6.39;65.21;99565.95;115383;1211;137634;-82
2021/11/06 07:04:14;;;;;;;0.00;0.00;;;;;;;6.45;65.42;99571.10;115465;1213;137178;-82
2021/11/06 07:06:40;;;;;;;0.00;0.00;;;;;;;6.51;65.17;99576.02;115577;1213;22222;-82
2021/11/06 07:09:05;;;;;;;0.10;0.10;;;;;;;6.57;65.43;99584.80;115335;1215;137158;-81
2021/11/06 07:11:31;;;;;;;0.10;0.10;;;;;;;6.62;64.88;99579.02;115474;1212;137171;-82
2021/11/06 07:13:56;;;;;;;0.00;0.00;;;;;;;6.68;65.11;99581.42;115407;1215;137323;-82
2021/11/06 07:16:23;;;;;;;0.10;0.10;;;;;;;6.74;64.90;99583.52;115483;1212;137861;-82
2021/11/06 07:18:49;;;;;;;0.10;0.10;;;;;;;6.79;64.81;99584.38;115483;1215;137143;-82
2021/11/06 07:21:14;;;;;;;0.10;0.10;;;;;;;6.86;64.74;99587.20;115515;1213;137298;-82
2021/11/06 07:23:40;;;;;;;0.00;0.00;;;;;;;6.93;64.38;99590.80;115472;1211;137077;-82
2021/11/06 07:26:05;;;;;;;0.10;0.10;;;;;;;6.98;64.40;99593.74;115406;1216;137368;-82
2021/11/06 07:28:31;;;;;;;0.10;0.10;;;;;;;7.05;64.23;99600.75;115514;1216;137210;-82
2021/11/06 07:30:59;;;;;;;0.00;0.00;;;;;;;7.13;63.96;99608.05;115536;1212;137173;-82
2021/11/06 07:33:25;;;;;;;0.00;0.00;;;;;;;7.19;63.69;99607.77;115627;1213;137342;-82
2021/11/06 07:35:51;;;;;;;0.10;0.10;;;;;;;7.28;63.30;99607.73;115637;1209;136999;-82
2021/11/06 07:38:16;;;;;;;0.10;0.10;;;;;;;7.35;63.55;99613.20;115417;1216;137941;-83
2021/11/06 07:40:43;;;;;;;0.10;0.10;;;;;;;7.45;63.16;99613.21;115541;1215;136983;-82
2021/11/06 07:43:09;;;;;;;0.00;0.00;;;;;;;7.55;62.77;99616.60;115483;1215;137727;-82
2021/11/06 07:45:35;;;;;;;0.00;0.00;;;;;;;7.65;62.77;99609.69;115568;1211;137243;-82
2021/11/06 07:48:01;;;;;;;0.10;0.10;;;;;;;7.75;62.60;99610.13;115577;1211;136823;-82
2021/11/06 07:50:27;;;;;;;0.00;0.00;;;;;;;7.86;62.06;99615.86;115367;1215;137663;-82
2021/11/06 07:52:52;;;;;;;0.10;0.10;;;;;;;7.98;61.65;99614.80;115502;1209;137526;-82
2021/11/06 07:55:18;;;;;;;0.00;0.00;;;;;;;8.09;61.28;99614.08;115477;1213;137595;-82
2021/11/06 07:57:44;;;;;;;0.10;0.10;;;;;;;8.23;61.66;99613.55;115369;1215;138387;-82
2021/11/06 08:00:13;;;;;;;0.00;0.00;;;;;;;8.36;61.52;99612.92;115620;1215;22242;-82
2021/11/06 08:02:39;;;;;;;0.10;0.10;;;;;;;8.54;61.14;99609.48;115325;1213;138373;-82
2021/11/06 08:05:07;;;;;;;0.10;0.10;;;;;;;8.72;61.26;99613.17;115480;1216;138799;-82
2021/11/06 08:07:33;;;;;;;0.00;0.00;;;;;;;8.93;61.10;99616.48;115483;1213;137797;-79
2021/11/06 08:10:00;;;;;;;0.00;0.00;;;;;;;9.14;60.58;99619.22;115386;1200;138045;-78
2021/11/06 08:12:26;;;;;;;0.00;0.00;;;;;;;9.36;60.14;99616.52;115628;1210;23035;-78
2021/11/06 08:14:52;;;;;;;0.10;0.10;;;;;;;9.56;59.33;99615.85;115338;1215;137847;-77
2021/11/06 08:17:18;;;;;;;0.10;0.10;;;;;;;9.73;58.69;99612.15;115487;1210;137756;-77
2021/11/06 08:19:44;;;;;;;0.10;0.10;;;;;;;9.92;58.08;99618.45;115361;1214;137929;-77
2021/11/06 08:22:10;;;;;;;0.10;0.10;;;;;;;10.08;57.59;99616.56;115392;1215;137311;-82
2021/11/06 08:24:36;;;;;;;0.00;0.00;;;;;;;10.26;57.01;99617.85;115592;1216;22357;-81
2021/11/06 08:27:02;;;;;;;0.10;0.10;;;;;;;10.41;56.26;99617.73;115299;1212;137362;-81
2021/11/06 08:29:28;;;;;;;0.10;0.10;;;;;;;10.59;55.62;99617.64;115457;1215;138272;-81
2021/11/06 08:31:58;;;;;;;0.10;0.10;;;;;;;10.73;55.04;99618.63;115298;1215;138708;-82
2021/11/06 08:34:24;;;;;;;0.10;0.10;;;;;;;10.88;54.52;99614.65;115511;1215;137832;-82
2021/11/06 08:36:49;;;;;;;0.10;0.10;;;;;;;11.04;54.66;99617.23;115501;1215;138005;-81
2021/11/06 08:39:18;;;;;;;0.10;0.10;;;;;;;11.19;54.20;99620.34;115407;1214;137574;-82
2021/11/06 08:41:44;;;;;;;0.10;0.10;;;;;;;11.33;53.93;99625.67;115498;1215;137277;-81
2021/11/06 08:44:10;;;;;;;0.10;0.10;;;;;;;11.50;53.59;99626.26;115384;1205;138179;-81
2021/11/06 08:46:36;;;;;;;0.20;0.20;;;;;;;11.64;52.95;99626.94;115437;1215;137424;-81
2021/11/06 08:49:02;;;;;;;0.10;0.10;;;;;;;11.75;52.17;99628.98;115527;1215;137991;-81
2021/11/06 08:51:27;;;;;;;0.10;0.10;;;;;;;11.86;51.60;99637.71;115409;1215;137470;-81
2021/11/06 08:53:53;;;;;;;0.10;0.10;;;;;;;11.95;51.38;99639.65;115458;1211;137631;-81
2021/11/06 08:56:19;;;;;;;0.10;0.10;;;;;;;12.05;51.33;99645.04;115332;1215;137769;-82
2021/11/06 08:58:45;;;;;;;0.10;0.10;;;;;;;12.16;51.01;99646.80;115414;1212;137551;-81
2021/11/06 09:01:11;;;;;;;0.20;0.20;;;;;;;12.25;50.80;99644.86;115436;1215;137712;-81
2021/11/06 09:03:37;;;;;;;0.20;0.20;;;;;;;12.38;51.16;99640.77;115455;1216;138468;-81
2021/11/06 09:06:03;;;;;;;0.10;0.10;;;;;;;12.50;50.51;99640.70;115429;1211;137230;-81
2021/11/06 09:08:33;;;;;;;0.20;0.20;;;;;;;12.59;49.64;99642.20;115312;1214;137576;-81
2021/11/06 09:11:02;;;;;;;0.10;0.10;;;;;;;12.68;49.82;99647.38;115403;1215;137391;-81
2021/11/06 09:13:29;;;;;;;0.10;0.10;;;;;;;12.77;49.23;99648.61;115454;1215;137507;-81
2021/11/06 09:15:55;;;;;;;0.10;0.10;;;;;;;12.88;48.40;99647.65;115320;1211;137486;-81
2021/11/06 09:18:21;;;;;;;0.10;0.10;;;;;;;12.95;48.79;99642.23;115566;1215;22306;-81
2021/11/06 09:20:46;;;;;;;0.20;0.20;;;;;;;13.02;48.54;99645.11;115338;1211;137840;-81
2021/11/06 09:23:12;;;;;;;0.10;0.10;;;;;;;13.10;47.97;99643.80;115427;1212;137420;-81
2021/11/06 09:25:38;;;;;;;0.20;0.20;;;;;;;13.14;47.74;99643.20;115375;1212;137769;-81
2021/11/06 09:28:04;;;;;;;0.10;0.10;;;;;;;13.19;47.56;99641.38;115503;1215;137703;-81
2021/11/06 09:30:30;;;;;;;0.20;0.20;;;;;;;13.30;47.10;99636.85;115607;1215;22249;-81
2021/11/06 09:32:56;;;;;;;0.10;0.10;;;;;;;13.37;46.61;99646.30;115414;1214;137377;-82
2021/11/06 09:35:21;;;;;;;0.20;0.20;;;;;;;13.47;46.32;99647.70;115459;1211;137347;-79
2021/11/06 09:37:49;;;;;;;0.20;0.20;;;;;;;13.60;46.65;99644.72;115441;1213;137663;-80
2021/11/06 09:40:15;;;;;;;0.10;0.10;;;;;;;13.76;46.37;99645.24;115448;1213;137503;-84
2021/11/06 09:42:41;;;;;;;0.10;0.10;;;;;;;13.90;46.18;99643.90;115507;1215;137569;-81
2021/11/06 09:45:09;;;;;;;0.20;0.20;;;;;;;14.04;45.77;99635.46;115538;1212;137462;-81
2021/11/06 09:47:36;;;;;;;0.20;0.20;;;;;;;14.20;45.50;99638.86;115545;1215;137509;-81
2021/11/06 09:50:04;;;;;;;0.10;0.10;;;;;;;14.39;44.32;99637.56;115367;1212;137833;-83
2021/11/06 09:52:30;;;;;;;0.20;0.20;;;;;;;14.57;43.94;99641.66;115453;1216;137517;-82
2021/11/06 09:54:56;;;;;;;0.20;0.20;;;;;;;14.74;43.97;99640.58;115450;1204;137781;-82
2021/11/06 09:57:21;;;;;;;0.10;0.10;;;;;;;14.94;43.60;99643.52;115449;1216;138016;-82
2021/11/06 09:59:47;;;;;;;0.20;0.20;;;;;;;15.08;42.84;99638.59;115469;1211;137567;-81
2021/11/06 10:02:13;;;;;;;0.10;0.10;;;;;;;15.25;42.35;99636.50;115296;1215;137709;-81
2021/11/06 10:04:39;;;;;;;0.20;0.20;;;;;;;15.39;42.41;99635.28;115478;1215;137622;-81
2021/11/06 10:07:17;;;;;;;0.30;0.30;;;;;;;15.53;41.92;99637.64;115410;1213;137773;-81
2021/11/06 10:10:04;;;;;;;0.30;0.30;;;;;;;15.78;41.99;99635.56;115379;1215;138547;-81
2021/11/06 10:12:52;;;;;;;0.20;0.20;;;;;;;15.99;41.84;99632.54;115666;1214;22350;-81
2021/11/06 10:15:19;;;;;;;0.30;0.30;;;;;;;16.20;41.01;99632.02;115587;1214;137312;-81
2021/11/06 10:17:46;;;;;;;0.20;0.20;;;;;;;16.31;40.80;99628.27;115442;1215;137437;-81
2021/11/06 10:20:26;;;;;;;0.30;0.30;;;;;;;16.35;40.33;99622.48;115364;1216;137817;-81
2021/11/06 10:22:53;;;;;;;0.30;0.30;;;;;;;16.42;40.81;99617.61;115535;1215;137717;-81
2021/11/06 10:25:21;;;;;;;0.30;0.30;;;;;;;16.51;40.49;99610.10;115477;1216;137542;-81
2021/11/06 10:27:52;;;;;;;0.20;0.20;;;;;;;16.61;39.48;99608.02;115378;1213;137471;-82
2021/11/06 10:30:24;;;;;;;0.30;0.30;;;;;;;16.70;39.02;99606.13;115568;1215;23089;-80
2021/11/06 10:33:06;;;;;;;0.30;0.30;;;;;;;16.75;38.67;99606.23;115387;1216;137714;-78
2021/11/06 10:35:35;;;;;;;0.20;0.20;;;;;;;16.78;38.39;99604.65;115536;1215;137314;-83
2021/11/06 10:38:13;;;;;;;0.30;0.30;;;;;;;16.83;39.13;99598.73;115301;1215;137780;-82
2021/11/06 10:40:46;;;;;;;0.20;0.20;;;;;;;16.95;38.77;99598.57;115428;1212;137740;-82
2021/11/06 10:43:14;;;;;;;0.20;0.20;;;;;;;16.98;38.48;99596.67;115393;1216;137699;-82
2021/11/06 10:45:45;;;;;;;0.40;0.40;;;;;;;17.06;38.63;99600.47;115417;1216;137905;-82
2021/11/06 10:48:13;;;;;;;0.40;0.40;;;;;;;17.18;37.33;99595.77;115552;1208;22364;-82
2021/11/06 10:50:51;;;;;;;0.20;0.20;;;;;;;17.26;37.50;99596.58;115347;1215;137623;-83
2021/11/06 10:53:51;;;;;;;0.40;0.40;;;;;;;17.30;38.16;99592.88;115511;1211;137518;-83
2021/11/06 10:56:23;;;;;;;0.20;0.20;;;;;;;17.42;37.62;99589.48;115409;1215;137804;-83
2021/11/06 10:58:51;;;;;;;0.40;0.40;;;;;;;17.55;37.45;99585.69;115417;1215;137548;-83
2021/11/06 11:01:21;;;;;;;0.30;0.30;;;;;;;17.59;37.06;99583.88;115417;1213;137942;-84
2021/11/06 11:03:48;;;;;;;0.40;0.40;;;;;;;17.64;36.99;99576.02;115499;1212;137563;-81
2021/11/06 11:06:20;;;;;;;0.30;0.30;;;;;;;17.71;35.96;99571.82;115615;1212;23461;-81
2021/11/06 11:08:50;;;;;;;0.20;0.20;;;;;;;17.70;35.97;99571.58;115339;1211;137633;-81
2021/11/06 11:11:19;;;;;;;0.30;0.30;;;;;;;17.70;36.30;99565.74;115486;1211;137590;-80
2021/11/06 11:13:50;;;;;;;0.40;0.40;;;;;;;17.83;36.18;99560.13;115519;1212;137522;-80
2021/11/06 11:16:18;;;;;;;0.20;0.20;;;;;;;18.04;36.01;99553.42;115609;1214;137981;-80
2021/11/06 11:18:46;;;;;;;0.20;0.20;;;;;;;18.11;35.42;99548.23;115434;1215;137728;-81
2021/11/06 11:21:13;;;;;;;0.30;0.30;;;;;;;18.09;35.12;99542.03;115498;1212;137373;-82
2021/11/06 11:23:41;;;;;;;0.30;0.30;;;;;;;18.17;35.23;99539.21;115657;1212;137904;-81